Time;durP1;ratioP1;P1;durP2;ratioP2;P2;SDS_P1;SDS_P2;PMS_P1;PMS_P2;Temp;Humidity;BMP_temperature;BMP_pressure;BME280_temperature;BME280_humidity;BME280_pressure;Samples;Min_cycle;Max_cycle;Signal;HPM_P1;HPM_P2
2020/12/15 00:00:33;;;;;;;14.07;12.40;;;6.10;99.90;;;;;;5034752;28;20168;-72
2020/12/15 00:02:59;;;;;;;15.00;11.90;;;6.10;99.90;;;;;;5034943;28;20168;-72
2020/12/15 00:05:24;;;;;;;16.87;13.20;;;6.00;99.90;;;;;;5034721;28;20298;-72
2020/12/15 00:07:50;;;;;;;16.40;12.73;;;6.10;99.90;;;;;;5034378;28;20541;-72
2020/12/15 00:10:15;;;;;;;18.93;12.90;;;6.00;99.90;;;;;;5034581;28;20192;-72
2020/12/15 00:12:41;;;;;;;14.17;11.83;;;6.00;99.90;;;;;;5034464;28;20179;-73
2020/12/15 00:15:08;;;;;;;15.37;12.87;;;5.90;99.90;;;;;;5034783;28;20295;-72
2020/12/15 00:17:34;;;;;;;18.97;14.33;;;5.90;99.90;;;;;;5034449;28;20406;-72
2020/12/15 00:19:59;;;;;;;14.90;11.90;;;5.90;99.90;;;;;;5034706;28;20526;-73
2020/12/15 00:22:25;;;;;;;16.07;12.53;;;5.80;99.90;;;;;;5034198;28;20298;-72
2020/12/15 00:24:50;;;;;;;16.93;13.30;;;5.80;99.90;;;;;;5033907;28;20207;-72
2020/12/15 00:27:16;;;;;;;15.33;12.07;;;5.80;99.90;;;;;;5034230;28;20174;-72
2020/12/15 00:29:41;;;;;;;14.10;11.87;;;5.80;99.90;;;;;;5034377;28;20531;-72
2020/12/15 00:32:09;;;;;;;15.30;12.30;;;5.80;99.90;;;;;;5034261;28;20423;-72
2020/12/15 00:34:35;;;;;;;20.23;11.43;;;5.80;99.90;;;;;;5034161;28;20674;-72
2020/12/15 00:37:01;;;;;;;18.60;12.77;;;5.70;99.90;;;;;;5034039;28;20406;-72
2020/12/15 00:39:26;;;;;;;17.53;12.77;;;5.80;99.90;;;;;;5034044;28;20429;-72
2020/12/15 00:41:52;;;;;;;17.00;12.30;;;5.80;99.90;;;;;;5033940;28;20528;-72
2020/12/15 00:44:17;;;;;;;19.13;13.20;;;5.70;99.90;;;;;;5034383;28;20225;-72
2020/12/15 00:46:43;;;;;;;17.23;12.60;;;5.70;99.90;;;;;;5034036;28;20168;-72
2020/12/15 00:49:09;;;;;;;15.10;12.03;;;5.70;99.90;;;;;;5033802;28;20187;-72
2020/12/15 00:51:34;;;;;;;16.27;12.30;;;5.70;99.90;;;;;;5033859;28;20686;-71
2020/12/15 00:54:00;;;;;;;19.07;12.60;;;5.70;99.90;;;;;;5033856;28;20399;-73
2020/12/15 00:56:25;;;;;;;15.57;12.13;;;5.70;99.90;;;;;;5033578;28;20171;-71
2020/12/15 00:58:51;;;;;;;15.40;11.00;;;5.60;99.90;;;;;;5033616;28;20187;-71
2020/12/15 01:01:16;;;;;;;17.83;13.40;;;5.60;99.90;;;;;;5033661;28;20226;-73
2020/12/15 01:03:42;;;;;;;15.97;12.17;;;5.60;99.90;;;;;;5033782;28;20246;-71
2020/12/15 01:06:09;;;;;;;16.97;12.97;;;5.60;99.90;;;;;;5033529;28;20164;-71
2020/12/15 01:08:34;;;;;;;15.13;12.37;;;5.60;99.90;;;;;;5033460;28;20270;-72
2020/12/15 01:11:00;;;;;;;18.13;13.77;;;5.60;99.90;;;;;;5033438;28;20895;-71
2020/12/15 01:13:25;;;;;;;15.63;11.60;;;5.60;99.90;;;;;;5033401;28;20183;-72
2020/12/15 01:15:50;;;;;;;16.00;11.90;;;5.50;99.90;;;;;;5032480;28;20532;-72
2020/12/15 01:18:16;;;;;;;14.00;11.20;;;5.50;99.90;;;;;;5033108;28;20204;-71
2020/12/15 01:20:42;;;;;;;19.30;13.63;;;5.50;99.90;;;;;;5033411;28;20543;-71
2020/12/15 01:23:07;;;;;;;17.80;13.53;;;5.50;99.90;;;;;;5033322;28;20624;-71
2020/12/15 01:25:33;;;;;;;12.57;11.20;;;5.50;99.90;;;;;;5033167;28;20175;-71
2020/12/15 01:27:58;;;;;;;17.10;12.60;;;5.50;99.90;;;;;;5033194;28;20168;-71
2020/12/15 01:30:24;;;;;;;17.53;13.60;;;5.50;99.90;;;;;;5033471;28;20548;-71
2020/12/15 01:32:49;;;;;;;15.20;11.10;;;5.50;99.90;;;;;;5033208;28;20608;-71
2020/12/15 01:35:18;;;;;;;14.90;11.73;;;5.50;99.90;;;;;;5032906;28;20446;-72
2020/12/15 01:37:46;;;;;;;19.30;14.13;;;5.50;99.90;;;;;;5032929;28;20176;-71
2020/12/15 01:40:12;;;;;;;13.93;11.77;;;5.50;99.90;;;;;;5032806;28;20426;-71
2020/12/15 01:42:38;;;;;;;16.33;12.07;;;5.50;99.90;;;;;;5033055;28;20457;-71
2020/12/15 01:45:05;;;;;;;13.30;11.10;;;5.50;99.90;;;;;;5032965;28;20579;-72
2020/12/15 01:47:31;;;;;;;14.93;12.27;;;5.50;99.90;;;;;;5031547;28;20226;-72
2020/12/15 01:49:57;;;;;;;15.73;11.73;;;5.50;99.90;;;;;;5032579;28;20833;-72
2020/12/15 01:52:22;;;;;;;14.57;11.67;;;5.50;99.90;;;;;;5032773;28;20179;-72
2020/12/15 01:54:50;;;;;;;14.70;11.73;;;5.50;99.90;;;;;;5032467;28;20410;-71
2020/12/15 01:57:16;;;;;;;16.27;11.57;;;5.50;99.90;;;;;;5032653;28;20636;-71
2020/12/15 01:59:41;;;;;;;14.33;12.57;;;5.50;99.90;;;;;;5032643;28;20434;-71
2020/12/15 02:02:07;;;;;;;15.83;11.57;;;5.50;99.90;;;;;;5032472;28;20490;-72
2020/12/15 02:04:32;;;;;;;14.03;11.30;;;5.50;99.90;;;;;;5032552;28;20176;-72
2020/12/15 02:06:58;;;;;;;14.80;11.47;;;5.50;99.90;;;;;;5032441;28;20260;-71
2020/12/15 02:09:23;;;;;;;15.53;12.30;;;5.40;99.90;;;;;;5032252;28;20703;-71
2020/12/15 02:11:49;;;;;;;16.60;12.00;;;5.40;99.90;;;;;;5032428;28;20471;-72
2020/12/15 02:14:15;;;;;;;12.50;10.80;;;5.40;99.90;;;;;;5032440;28;20174;-71
2020/12/15 02:16:41;;;;;;;15.67;12.10;;;5.40;99.90;;;;;;5032342;28;20989;-72
2020/12/15 02:19:14;;;;;;;16.97;12.73;;;5.40;99.90;;;;;;5032545;28;20196;-72
2020/12/15 02:22:02;;;;;;;12.77;10.10;;;5.40;99.90;;;;;;5032392;28;20974;-71
2020/12/15 02:24:28;;;;;;;14.87;11.50;;;5.40;99.90;;;;;;5032248;28;20432;-71
2020/12/15 02:26:54;;;;;;;16.97;12.73;;;5.40;99.90;;;;;;5031916;28;20411;-71
2020/12/15 02:29:19;;;;;;;12.77;10.67;;;5.40;99.90;;;;;;5031555;28;20976;-72
2020/12/15 02:31:45;;;;;;;13.90;12.10;;;5.50;99.90;;;;;;5032196;28;20183;-72
2020/12/15 02:34:11;;;;;;;14.13;11.20;;;5.50;99.90;;;;;;5032064;28;20171;-72
2020/12/15 02:36:36;;;;;;;15.07;11.00;;;5.40;99.90;;;;;;5031870;28;20564;-72
2020/12/15 02:39:22;;;;;;;13.50;11.77;;;5.40;99.90;;;;;;5031903;28;20257;-71
2020/12/15 02:41:53;;;;;;;15.57;12.13;;;5.40;99.90;;;;;;5031949;28;20253;-72
2020/12/15 02:44:19;;;;;;;15.57;11.70;;;5.40;99.90;;;;;;5032142;28;20405;-73
2020/12/15 02:46:44;;;;;;;15.37;12.60;;;5.40;99.90;;;;;;5031900;28;20407;-72
2020/12/15 02:49:10;;;;;;;15.20;11.70;;;5.30;99.90;;;;;;5031897;28;20196;-72
2020/12/15 02:51:35;;;;;;;15.73;14.00;;;5.30;99.90;;;;;;5032086;28;20278;-71
2020/12/15 02:54:01;;;;;;;16.47;11.20;;;5.30;99.90;;;;;;5032353;28;20168;-71
2020/12/15 02:56:26;;;;;;;14.63;12.20;;;5.30;99.90;;;;;;5032512;28;20183;-72
2020/12/15 02:58:52;;;;;;;14.20;11.50;;;5.30;99.90;;;;;;5031507;28;20199;-72
2020/12/15 03:01:18;;;;;;;15.10;12.10;;;5.30;99.90;;;;;;5031981;28;20195;-71
2020/12/15 03:03:44;;;;;;;14.30;11.60;;;5.30;99.90;;;;;;5032275;28;20406;-71
2020/12/15 03:06:11;;;;;;;17.17;13.20;;;5.20;99.90;;;;;;5031693;28;20492;-70
2020/12/15 03:08:36;;;;;;;12.90;11.53;;;5.30;99.90;;;;;;5031896;28;20446;-72
2020/12/15 03:11:03;;;;;;;14.27;11.50;;;5.30;99.90;;;;;;5031720;28;20403;-72
2020/12/15 03:13:29;;;;;;;17.00;13.90;;;5.30;99.90;;;;;;5031755;28;20176;-71
2020/12/15 03:15:54;;;;;;;15.00;12.10;;;5.30;99.90;;;;;;5031672;28;20410;-72
2020/12/15 03:18:20;;;;;;;15.67;12.73;;;5.30;99.90;;;;;;5031411;28;20175;-73
2020/12/15 03:20:49;;;;;;;19.10;12.10;;;5.30;99.90;;;;;;5031376;28;20172;-71
2020/12/15 03:23:18;;;;;;;15.37;12.17;;;5.30;99.90;;;;;;5031562;28;20221;-72
2020/12/15 03:25:44;;;;;;;13.80;11.60;;;5.30;99.90;;;;;;5031502;28;20409;-72
2020/12/15 03:28:10;;;;;;;19.70;13.50;;;5.30;99.90;;;;;;5031367;28;20422;-71
2020/12/15 03:30:35;;;;;;;16.80;12.80;;;5.40;99.90;;;;;;5031678;28;20213;-71
2020/12/15 03:33:01;;;;;;;16.17;12.70;;;5.40;99.90;;;;;;5031540;28;20909;-72
2020/12/15 03:35:27;;;;;;;14.90;12.20;;;5.40;99.90;;;;;;5031788;28;20402;-72
2020/12/15 03:37:54;;;;;;;14.40;11.37;;;5.40;99.90;;;;;;5031366;28;20417;-69
2020/12/15 03:40:20;;;;;;;14.90;12.23;;;5.40;99.90;;;;;;5033910;28;20950;-71
2020/12/15 03:42:45;;;;;;;16.20;12.83;;;5.40;99.90;;;;;;5035450;28;20454;-72
2020/12/15 03:45:11;;;;;;;17.23;12.03;;;5.40;99.90;;;;;;5035234;28;20174;-71
2020/12/15 03:47:36;;;;;;;15.27;12.30;;;5.40;99.90;;;;;;5034984;28;20199;-71
2020/12/15 03:50:02;;;;;;;17.10;12.83;;;5.40;99.90;;;;;;5034988;28;20196;-71
2020/12/15 03:52:27;;;;;;;18.47;13.57;;;5.40;99.90;;;;;;5034943;28;20249;-72
2020/12/15 03:54:53;;;;;;;17.07;12.70;;;5.40;99.90;;;;;;5034688;28;20175;-71
2020/12/15 03:57:18;;;;;;;21.70;13.30;;;5.40;99.90;;;;;;5035097;28;20527;-72
2020/12/15 03:59:44;;;;;;;16.63;13.20;;;5.40;99.90;;;;;;5034784;28;20199;-72
2020/12/15 04:02:09;;;;;;;14.37;12.87;;;5.40;99.90;;;;;;5034598;28;20207;-72
2020/12/15 04:04:34;;;;;;;16.47;12.77;;;5.40;99.90;;;;;;5034799;28;20179;-72
2020/12/15 04:07:00;;;;;;;16.87;13.60;;;5.40;99.90;;;;;;5034447;28;20175;-72
2020/12/15 04:09:25;;;;;;;18.10;13.63;;;5.40;99.90;;;;;;5034308;28;20675;-73
2020/12/15 04:11:51;;;;;;;15.00;11.93;;;5.30;99.90;;;;;;5034549;28;20199;-72
2020/12/15 04:14:16;;;;;;;17.10;13.23;;;5.30;99.90;;;;;;5034423;28;20186;-72
2020/12/15 04:16:42;;;;;;;18.30;12.87;;;5.30;99.90;;;;;;5034515;28;20216;-71
2020/12/15 04:19:07;;;;;;;16.83;12.57;;;5.30;99.90;;;;;;5034390;28;20196;-71
2020/12/15 04:21:32;;;;;;;19.70;14.63;;;5.20;99.90;;;;;;5034324;28;20951;-71
2020/12/15 04:23:58;;;;;;;17.03;13.73;;;5.20;99.90;;;;;;5034356;28;20166;-71
2020/12/15 04:26:24;;;;;;;17.50;14.03;;;5.10;99.90;;;;;;5032883;28;20178;-71
2020/12/15 04:28:49;;;;;;;20.43;15.20;;;5.10;99.90;;;;;;5034319;28;20267;-71
2020/12/15 04:31:14;;;;;;;19.20;13.53;;;5.10;99.90;;;;;;5034069;28;20167;-71
2020/12/15 04:33:40;;;;;;;20.83;13.50;;;5.10;99.90;;;;;;5033967;28;20531;-72
2020/12/15 04:36:05;;;;;;;15.80;13.93;;;5.10;99.90;;;;;;5033925;28;20257;-71
2020/12/15 04:38:31;;;;;;;18.90;14.37;;;5.00;99.90;;;;;;5033862;28;20187;-71
2020/12/15 04:40:56;;;;;;;18.20;14.20;;;5.00;99.90;;;;;;5033843;28;20290;-71
2020/12/15 04:43:22;;;;;;;16.73;13.50;;;5.00;99.90;;;;;;5033959;28;20164;-72
2020/12/15 04:45:48;;;;;;;19.10;14.33;;;4.90;99.90;;;;;;5034047;28;20719;-71
2020/12/15 04:48:21;;;;;;;17.50;13.70;;;4.90;99.90;;;;;;5033755;28;20195;-71
2020/12/15 04:50:49;;;;;;;20.67;15.57;;;4.90;99.90;;;;;;5032733;28;20410;-72
2020/12/15 04:53:23;;;;;;;19.00;15.67;;;4.90;99.90;;;;;;5033852;28;20402;-72
2020/12/15 04:55:50;;;;;;;19.73;13.70;;;4.90;99.90;;;;;;5033833;28;20887;-72
2020/12/15 04:58:20;;;;;;;19.67;14.43;;;4.80;99.90;;;;;;5033767;28;20895;-71
2020/12/15 05:00:45;;;;;;;22.47;14.93;;;4.80;99.90;;;;;;5033721;28;20832;-71
2020/12/15 05:03:14;;;;;;;20.20;13.87;;;4.80;99.90;;;;;;5033637;28;20434;-71
2020/12/15 05:05:40;;;;;;;20.53;14.80;;;4.80;99.90;;;;;;5033539;28;20546;-72
2020/12/15 05:08:06;;;;;;;19.57;14.47;;;4.80;99.90;;;;;;5033253;28;20464;-71
2020/12/15 05:10:31;;;;;;;17.80;14.30;;;4.80;99.90;;;;;;5033704;28;20442;-71
2020/12/15 05:12:57;;;;;;;20.43;15.20;;;4.80;99.90;;;;;;5033493;28;20184;-71
2020/12/15 05:15:22;;;;;;;20.77;13.53;;;4.80;99.90;;;;;;5033492;28;20666;-71
2020/12/15 05:17:48;;;;;;;23.13;16.10;;;4.80;99.90;;;;;;5033351;28;20182;-71
2020/12/15 05:20:25;;;;;;;21.97;14.30;;;4.80;99.90;;;;;;5033047;28;20180;-71
2020/12/15 05:22:50;;;;;;;22.80;16.00;;;4.80;99.90;;;;;;5033188;28;20961;-71
2020/12/15 05:25:24;;;;;;;19.57;15.27;;;4.70;99.90;;;;;;5033213;28;20406;-71
2020/12/15 05:27:49;;;;;;;18.80;13.97;;;4.80;99.90;;;;;;5033131;28;20164;-72
2020/12/15 05:30:15;;;;;;;19.60;15.70;;;4.80;99.90;;;;;;5033082;28;20509;-71
2020/12/15 05:32:49;;;;;;;24.10;16.07;;;4.70;99.90;;;;;;5032970;28;20171;-71
2020/12/15 05:35:15;;;;;;;23.20;15.67;;;4.70;99.90;;;;;;5033011;28;20206;-72
2020/12/15 05:37:44;;;;;;;22.60;16.37;;;4.70;99.90;;;;;;5033044;28;20402;-72
2020/12/15 05:40:10;;;;;;;18.97;14.60;;;4.70;99.90;;;;;;5033054;28;20453;-72
2020/12/15 05:42:37;;;;;;;22.23;15.50;;;4.70;99.90;;;;;;5033016;28;20487;-72
2020/12/15 05:45:05;;;;;;;19.93;14.83;;;4.70;99.90;;;;;;5032779;28;20757;-72
2020/12/15 05:47:32;;;;;;;23.90;15.30;;;4.70;99.90;;;;;;5033058;28;20407;-71
2020/12/15 05:49:58;;;;;;;22.10;16.33;;;4.70;99.90;;;;;;5032949;28;20524;-73
2020/12/15 05:52:25;;;;;;;19.13;14.20;;;4.70;99.90;;;;;;5032826;28;20403;-72
2020/12/15 05:54:52;;;;;;;20.70;14.63;;;4.70;99.90;;;;;;5033096;28;20406;-72
2020/12/15 05:57:23;;;;;;;22.77;15.97;;;4.70;99.90;;;;;;5032824;28;20406;-72
2020/12/15 05:59:48;;;;;;;21.60;17.23;;;4.70;99.90;;;;;;5032761;28;20509;-72
2020/12/15 06:02:14;;;;;;;21.30;15.67;;;4.70;99.90;;;;;;5032368;28;20541;-72
2020/12/15 06:04:39;;;;;;;20.00;15.87;;;4.70;99.90;;;;;;5032584;28;20171;-71
2020/12/15 06:07:07;;;;;;;23.40;15.33;;;4.70;99.90;;;;;;5032649;28;20399;-72
2020/12/15 06:09:34;;;;;;;24.67;16.70;;;4.70;99.90;;;;;;5032685;28;20210;-73
2020/12/15 06:12:00;;;;;;;17.93;13.97;;;4.70;99.90;;;;;;5032501;28;20406;-72
2020/12/15 06:14:26;;;;;;;19.50;15.50;;;4.80;99.90;;;;;;5032258;28;20750;-72
2020/12/15 06:16:52;;;;;;;23.47;16.50;;;4.80;99.90;;;;;;5032180;28;20402;-72
2020/12/15 06:19:19;;;;;;;21.47;15.43;;;4.80;99.90;;;;;;5032025;28;20430;-71
2020/12/15 06:21:50;;;;;;;21.10;15.87;;;4.80;99.90;;;;;;5032002;28;20524;-72
2020/12/15 06:24:24;;;;;;;23.20;16.47;;;4.80;99.90;;;;;;5032504;28;20445;-72
2020/12/15 06:26:58;;;;;;;20.60;15.90;;;4.90;99.90;;;;;;5031916;28;20769;-72
2020/12/15 06:29:37;;;;;;;20.50;14.47;;;5.00;99.90;;;;;;5031859;28;20908;-71
2020/12/15 06:32:14;;;;;;;22.03;16.37;;;5.00;99.90;;;;;;5032007;28;20819;-72
2020/12/15 06:34:43;;;;;;;25.23;16.50;;;5.00;99.90;;;;;;5032020;28;20822;-72
2020/12/15 06:37:09;;;;;;;21.87;15.47;;;5.00;99.90;;;;;;5031862;28;20402;-72
2020/12/15 06:39:34;;;;;;;21.50;15.23;;;5.00;99.90;;;;;;5032008;28;20540;-71
2020/12/15 06:42:03;;;;;;;20.27;15.13;;;5.00;99.90;;;;;;5032125;28;20195;-71
2020/12/15 06:44:37;;;;;;;23.77;15.67;;;5.10;99.90;;;;;;5030589;28;20214;-71
2020/12/15 06:47:04;;;;;;;23.43;15.70;;;5.10;99.90;;;;;;5032126;28;20902;-71
2020/12/15 06:49:32;;;;;;;19.07;14.33;;;5.10;99.90;;;;;;5031907;28;20842;-71
2020/12/15 06:51:59;;;;;;;22.20;17.27;;;5.10;99.90;;;;;;5031966;28;20798;-72
2020/12/15 06:54:27;;;;;;;21.77;15.10;;;5.10;99.90;;;;;;5031829;28;20413;-72
2020/12/15 06:57:10;;;;;;;19.57;15.07;;;5.10;99.90;;;;;;5031860;28;20414;-72
2020/12/15 06:59:40;;;;;;;22.43;14.30;;;5.10;99.90;;;;;;5031706;28;20430;-72
2020/12/15 07:02:16;;;;;;;20.37;15.60;;;5.10;99.90;;;;;;5031601;28;20457;-73
2020/12/15 07:04:48;;;;;;;22.97;15.43;;;5.10;99.90;;;;;;5031757;28;20804;-71
2020/12/15 07:07:15;;;;;;;22.10;15.63;;;5.20;99.90;;;;;;5031622;28;20839;-71
2020/12/15 07:09:41;;;;;;;23.07;16.37;;;5.10;99.90;;;;;;5031476;28;20815;-71
2020/12/15 07:12:14;;;;;;;21.30;15.40;;;5.20;99.90;;;;;;5031671;28;20411;-71
2020/12/15 07:14:43;;;;;;;21.97;13.90;;;5.20;99.90;;;;;;5033125;28;20406;-71
2020/12/15 07:17:09;;;;;;;21.13;14.83;;;5.40;99.90;;;;;;5035420;28;20766;-71
2020/12/15 07:19:35;;;;;;;20.50;15.40;;;5.40;99.90;;;;;;5035408;28;20434;-72
2020/12/15 07:22:04;;;;;;;19.20;14.37;;;5.30;99.90;;;;;;5035384;28;20211;-72
2020/12/15 07:24:30;;;;;;;20.30;14.10;;;5.30;99.90;;;;;;5035420;28;20179;-71
2020/12/15 07:26:57;;;;;;;23.90;14.90;;;5.30;99.90;;;;;;5035314;28;21136;-71
2020/12/15 07:29:23;;;;;;;23.90;16.90;;;5.20;99.90;;;;;;5035180;28;20430;-71
2020/12/15 07:31:48;;;;;;;22.47;15.80;;;5.10;99.90;;;;;;5035267;28;20463;-71
2020/12/15 07:34:16;;;;;;;19.67;15.17;;;5.10;99.90;;;;;;5035306;28;20250;-71
2020/12/15 07:36:44;;;;;;;21.90;15.60;;;5.10;99.90;;;;;;5035347;28;20689;-71
2020/12/15 07:39:10;;;;;;;23.67;14.70;;;5.10;99.90;;;;;;5034998;28;20430;-71
2020/12/15 07:41:38;;;;;;;24.43;16.43;;;5.10;99.90;;;;;;5034969;28;20891;-71
2020/12/15 07:44:11;;;;;;;20.00;15.87;;;5.10;99.90;;;;;;5034931;28;20407;-73
2020/12/15 07:46:42;;;;;;;21.80;15.83;;;5.10;99.90;;;;;;5034805;28;20401;-73
2020/12/15 07:49:08;;;;;;;21.80;16.70;;;5.20;99.90;;;;;;5033464;28;20467;-73
2020/12/15 07:51:37;;;;;;;24.13;16.03;;;5.20;99.90;;;;;;5034837;28;20505;-73
2020/12/15 07:54:03;;;;;;;23.87;16.70;;;5.30;99.90;;;;;;5034776;28;20820;-71
2020/12/15 07:56:29;;;;;;;24.27;16.60;;;5.20;99.90;;;;;;5034668;28;20506;-73
2020/12/15 07:58:55;;;;;;;24.87;17.87;;;5.20;99.90;;;;;;5034661;28;20653;-73
2020/12/15 08:01:26;;;;;;;23.43;16.63;;;5.20;99.90;;;;;;5030673;28;20191;-73
2020/12/15 08:04:07;;;;;;;22.33;14.80;;;5.20;99.90;;;;;;5034408;28;20406;-73
2020/12/15 08:06:35;;;;;;;20.60;14.73;;;5.30;99.90;;;;;;5034114;28;20525;-73
2020/12/15 08:09:04;;;;;;;21.90;16.03;;;5.30;99.90;;;;;;5034150;28;20458;-73
2020/12/15 08:11:29;;;;;;;22.63;17.00;;;5.30;99.90;;;;;;5034441;28;20773;-73
2020/12/15 08:13:55;;;;;;;19.50;15.37;;;5.30;99.90;;;;;;5034526;28;20481;-74
2020/12/15 08:16:22;;;;;;;25.90;17.10;;;5.40;99.90;;;;;;5034427;28;20640;-73
2020/12/15 08:18:48;;;;;;;22.57;16.73;;;5.40;99.90;;;;;;5033813;28;20442;-73
2020/12/15 08:21:16;;;;;;;22.10;17.10;;;5.40;99.90;;;;;;5034043;28;20953;-73
2020/12/15 08:23:52;;;;;;;20.23;14.87;;;5.40;99.90;;;;;;5034279;28;20401;-73
2020/12/15 08:26:19;;;;;;;16.63;14.17;;;5.50;99.90;;;;;;5034214;28;20433;-72
2020/12/15 08:28:46;;;;;;;21.80;14.83;;;5.50;99.90;;;;;;5034041;28;20429;-73
2020/12/15 08:31:12;;;;;;;21.40;16.20;;;5.60;99.90;;;;;;5034074;28;20438;-73
2020/12/15 08:33:38;;;;;;;23.33;17.80;;;5.60;99.90;;;;;;5034172;28;20827;-73
2020/12/15 08:36:05;;;;;;;22.27;15.23;;;5.70;99.90;;;;;;5033947;28;20419;-73
2020/12/15 08:38:30;;;;;;;19.10;14.87;;;5.70;99.90;;;;;;5033903;28;20488;-73
2020/12/15 08:41:01;;;;;;;20.13;16.10;;;5.80;99.90;;;;;;5033829;28;20402;-73
2020/12/15 08:43:27;;;;;;;21.17;17.30;;;5.80;99.90;;;;;;5033821;28;20168;-73
2020/12/15 08:45:53;;;;;;;19.27;14.67;;;5.80;99.90;;;;;;5033748;28;20410;-72
2020/12/15 08:48:20;;;;;;;20.73;15.83;;;5.80;99.90;;;;;;5033546;28;20402;-72
2020/12/15 08:50:47;;;;;;;18.93;14.17;;;5.80;99.90;;;;;;5033662;28;20391;-73
2020/12/15 08:53:13;;;;;;;21.47;16.73;;;5.80;99.90;;;;;;5033663;28;20783;-72
2020/12/15 08:55:39;;;;;;;23.27;16.13;;;5.80;99.90;;;;;;5033807;28;20414;-72
2020/12/15 08:58:07;;;;;;;23.10;16.60;;;5.90;99.90;;;;;;5033666;28;20439;-73
2020/12/15 09:00:34;;;;;;;22.37;16.10;;;5.90;99.90;;;;;;5033688;28;20406;-74
2020/12/15 09:03:07;;;;;;;19.70;15.57;;;5.90;99.90;;;;;;5033760;28;20511;-74
2020/12/15 09:05:44;;;;;;;19.93;15.13;;;5.90;99.90;;;;;;5033585;28;20455;-73
2020/12/15 09:08:09;;;;;;;25.20;16.87;;;5.90;99.90;;;;;;5033394;28;20426;-73
2020/12/15 09:10:35;;;;;;;22.30;15.60;;;6.00;99.90;;;;;;5033370;28;20419;-73
2020/12/15 09:13:04;;;;;;;20.83;15.53;;;6.10;99.90;;;;;;5033893;28;20182;-74
2020/12/15 09:15:30;;;;;;;21.90;15.93;;;6.10;99.90;;;;;;5032918;28;20666;-74
2020/12/15 09:17:55;;;;;;;20.90;15.40;;;6.10;99.90;;;;;;5034576;28;20407;-73
2020/12/15 09:20:27;;;;;;;23.63;15.90;;;6.20;99.90;;;;;;5034277;28;20199;-73
2020/12/15 09:22:53;;;;;;;21.60;16.83;;;6.30;99.90;;;;;;5032692;28;20206;-74
2020/12/15 09:25:19;;;;;;;21.43;15.97;;;6.30;99.90;;;;;;5033645;28;20406;-73
2020/12/15 09:27:46;;;;;;;19.40;15.03;;;6.40;99.90;;;;;;5033534;28;20406;-74
2020/12/15 09:30:14;;;;;;;24.43;17.03;;;6.40;99.90;;;;;;5033999;28;20211;-73
2020/12/15 09:32:41;;;;;;;19.83;14.97;;;6.40;99.90;;;;;;5034789;28;20404;-74
2020/12/15 09:35:08;;;;;;;20.07;16.60;;;6.50;99.90;;;;;;5033827;28;20421;-74
2020/12/15 09:37:34;;;;;;;18.90;15.80;;;6.60;99.90;;;;;;5033173;28;20906;-74
2020/12/15 09:40:00;;;;;;;19.70;14.57;;;6.60;99.90;;;;;;5033362;28;20418;-74
2020/12/15 09:42:27;;;;;;;30.13;17.13;;;6.70;99.90;;;;;;5033627;28;20686;-74
2020/12/15 09:44:52;;;;;;;33.00;20.90;;;6.60;99.90;;;;;;5032773;28;20514;-73
2020/12/15 09:47:18;;;;;;;19.80;16.00;;;6.70;99.90;;;;;;5032894;28;20540;-73
2020/12/15 09:49:43;;;;;;;21.47;15.27;;;6.70;99.90;;;;;;5032771;28;20183;-73
2020/12/15 09:52:09;;;;;;;19.10;14.30;;;6.70;99.90;;;;;;5032911;28;20549;-73
2020/12/15 09:54:34;;;;;;;19.67;15.10;;;6.70;99.90;;;;;;5033829;28;20178;-73
2020/12/15 09:57:00;;;;;;;18.93;15.73;;;6.70;99.90;;;;;;5032514;28;20179;-73
2020/12/15 09:59:25;;;;;;;20.20;15.83;;;6.70;99.90;;;;;;5031270;28;20267;-72
2020/12/15 10:01:52;;;;;;;17.90;14.50;;;6.70;99.90;;;;;;5033229;28;20197;-72
2020/12/15 10:04:17;;;;;;;20.87;15.13;;;6.70;99.90;;;;;;5034337;28;20190;-74
2020/12/15 10:06:43;;;;;;;20.67;15.03;;;6.80;99.90;;;;;;5032884;28;20394;-72
2020/12/15 10:09:08;;;;;;;20.63;15.33;;;6.80;99.90;;;;;;5032566;28;20628;-73
2020/12/15 10:11:34;;;;;;;20.27;14.90;;;6.70;99.90;;;;;;5032656;28;20283;-73
2020/12/15 10:14:02;;;;;;;18.70;14.90;;;6.70;99.90;;;;;;5032593;28;20199;-73
2020/12/15 10:16:27;;;;;;;20.17;15.40;;;6.70;99.90;;;;;;5031068;28;20254;-73
2020/12/15 10:18:53;;;;;;;21.80;16.03;;;6.70;99.90;;;;;;5032294;28;20568;-73
2020/12/15 10:21:19;;;;;;;22.67;16.60;;;6.70;99.90;;;;;;5032304;28;20675;-73
2020/12/15 10:23:47;;;;;;;20.13;15.90;;;6.70;99.90;;;;;;5031191;28;20497;-73
2020/12/15 10:26:18;;;;;;;18.40;14.77;;;6.70;99.90;;;;;;5032448;28;20604;-73
2020/12/15 10:28:44;;;;;;;20.27;15.63;;;6.70;99.90;;;;;;5032173;28;20458;-73
2020/12/15 10:31:10;;;;;;;22.07;15.30;;;6.60;99.90;;;;;;5032688;28;20845;-73
2020/12/15 10:33:36;;;;;;;21.00;14.97;;;6.70;99.90;;;;;;5032358;28;20453;-73
2020/12/15 10:36:02;;;;;;;18.60;15.93;;;6.70;99.90;;;;;;5032103;28;20632;-72
2020/12/15 10:38:27;;;;;;;19.93;14.23;;;6.70;99.90;;;;;;5029899;28;20226;-73
2020/12/15 10:40:53;;;;;;;20.37;15.97;;;6.70;99.90;;;;;;5031818;28;20848;-73
2020/12/15 10:43:18;;;;;;;20.87;16.77;;;6.70;99.90;;;;;;5031978;28;20216;-73
2020/12/15 10:45:44;;;;;;;21.13;16.57;;;6.80;99.90;;;;;;5032119;28;20175;-73
2020/12/15 10:48:09;;;;;;;21.20;15.83;;;6.70;99.90;;;;;;5030347;28;20180;-73
2020/12/15 10:50:35;;;;;;;18.50;14.27;;;6.80;99.90;;;;;;5030533;28;20603;-73
2020/12/15 10:53:02;;;;;;;19.00;14.80;;;6.80;99.90;;;;;;5032138;28;20389;-72
2020/12/15 10:55:28;;;;;;;17.97;15.37;;;6.80;99.90;;;;;;5031894;28;20163;-73
2020/12/15 10:57:53;;;;;;;21.67;15.63;;;6.90;99.90;;;;;;5030581;28;20976;-73
2020/12/15 11:00:19;;;;;;;20.80;16.67;;;6.90;99.90;;;;;;5032179;28;20244;-73
2020/12/15 11:02:44;;;;;;;22.87;16.97;;;6.90;99.90;;;;;;5031899;28;20564;-73
2020/12/15 11:05:10;;;;;;;20.37;15.20;;;6.90;99.90;;;;;;5032063;28;20245;-73
2020/12/15 11:07:35;;;;;;;22.03;15.10;;;6.90;99.90;;;;;;5031726;28;20168;-73
2020/12/15 11:10:01;;;;;;;21.43;14.50;;;7.00;99.90;;;;;;5031623;28;20281;-73
2020/12/15 11:12:26;;;;;;;18.80;13.90;;;6.90;99.90;;;;;;5031704;28;20172;-73
2020/12/15 11:14:51;;;;;;;21.90;16.27;;;7.00;99.90;;;;;;5032291;28;20253;-73
2020/12/15 11:17:17;;;;;;;20.10;15.73;;;7.10;99.90;;;;;;5031904;28;20171;-72
2020/12/15 11:19:42;;;;;;;18.50;14.50;;;7.10;99.90;;;;;;5031599;28;20192;-72
2020/12/15 11:22:08;;;;;;;19.93;15.47;;;7.10;99.90;;;;;;5031724;28;20632;-73
2020/12/15 11:24:34;;;;;;;19.60;15.70;;;7.20;99.90;;;;;;5030518;28;20199;-72
2020/12/15 11:27:00;;;;;;;19.30;14.93;;;7.20;99.90;;;;;;5031711;28;20179;-73
2020/12/15 11:29:25;;;;;;;21.13;15.20;;;7.20;99.90;;;;;;5030504;28;20433;-72
2020/12/15 11:31:52;;;;;;;18.93;14.70;;;7.20;99.90;;;;;;5031427;28;20200;-72
2020/12/15 11:34:18;;;;;;;21.33;15.97;;;7.30;99.90;;;;;;5031725;28;20221;-72
2020/12/15 11:36:43;;;;;;;20.73;14.47;;;7.40;99.90;;;;;;5031223;28;20405;-72
2020/12/15 11:39:09;;;;;;;18.50;15.10;;;7.40;99.90;;;;;;5031208;28;20935;-71
2020/12/15 11:41:35;;;;;;;21.77;15.70;;;7.40;99.90;;;;;;5031283;28;20664;-72
2020/12/15 11:44:00;;;;;;;17.37;14.87;;;7.40;99.90;;;;;;5031580;28;20168;-72
2020/12/15 11:46:26;;;;;;;28.93;15.73;;;7.40;99.90;;;;;;5031303;28;20420;-72
2020/12/15 11:48:51;;;;;;;19.80;15.57;;;7.40;99.90;;;;;;5031289;28;20209;-72
2020/12/15 11:51:20;;;;;;;17.07;13.20;;;7.40;99.90;;;;;;5031398;28;20613;-72
2020/12/15 11:53:47;;;;;;;18.67;13.93;;;7.40;99.90;;;;;;5031344;28;20171;-73
2020/12/15 11:56:18;;;;;;;14.50;12.27;;;7.50;99.90;;;;;;5031071;28;20411;-73
2020/12/15 11:58:44;;;;;;;19.10;15.87;;;7.50;99.90;;;;;;5031495;28;20484;-73
2020/12/15 12:01:10;;;;;;;20.30;14.50;;;7.60;99.90;;;;;;5032403;28;20411;-72
2020/12/15 12:03:36;;;;;;;15.83;13.17;;;7.70;99.90;;;;;;5033737;28;20926;-73
2020/12/15 12:06:01;;;;;;;21.03;14.30;;;7.70;99.90;;;;;;5034733;28;20400;-72
2020/12/15 12:08:28;;;;;;;20.63;13.90;;;7.60;99.90;;;;;;5035826;28;20249;-75
2020/12/15 12:10:53;;;;;;;19.50;13.80;;;7.60;99.90;;;;;;5036330;28;20628;-74
2020/12/15 12:13:22;;;;;;;15.97;13.77;;;7.70;99.90;;;;;;5035642;28;20433;-79
2020/12/15 12:15:47;;;;;;;16.07;13.47;;;7.90;99.90;;;;;;5034939;28;20167;-73
2020/12/15 12:18:13;;;;;;;23.13;15.83;;;8.00;99.90;;;;;;5035287;28;20445;-76
2020/12/15 12:20:39;;;;;;;20.30;16.37;;;8.40;99.90;;;;;;5035668;28;20172;-74
2020/12/15 12:23:04;;;;;;;16.00;14.30;;;8.50;99.90;;;;;;5033716;28;20203;-71
2020/12/15 12:25:30;;;;;;;16.47;12.90;;;8.50;99.90;;;;;;5034452;28;20415;-71
2020/12/15 12:27:56;;;;;;;21.20;15.07;;;8.30;99.90;;;;;;5033961;28;20184;-71
2020/12/15 12:30:22;;;;;;;18.57;13.83;;;8.20;99.90;;;;;;5034112;28;20516;-71
2020/12/15 12:32:49;;;;;;;16.60;12.67;;;8.20;99.90;;;;;;5034217;28;20640;-71